createdAt,value
2023-01-18T00:01:09.547Z,98569.13
2023-01-18T00:03:38.199Z,98593.53
2023-01-18T00:06:07.216Z,98565.28
2023-01-18T00:08:35.832Z,98592.97
2023-01-18T00:11:04.476Z,98576.09
2023-01-18T00:13:31.267Z,98565.72
2023-01-18T00:16:06.100Z,98550.50
2023-01-18T00:18:33.069Z,98563.75
2023-01-18T00:21:04.602Z,98568.78
2023-01-18T00:23:31.468Z,98533.53
2023-01-18T00:26:06.270Z,98569.81
2023-01-18T00:28:33.376Z,98553.41
2023-01-18T00:30:59.829Z,98541.53
2023-01-18T00:33:26.215Z,98559.81
2023-01-18T00:36:02.888Z,98569.13
2023-01-18T00:38:30.127Z,98543.97
2023-01-18T00:40:57.240Z,98546.25
2023-01-18T00:43:38.929Z,98542.34
2023-01-18T00:46:06.337Z,98533.03
2023-01-18T00:48:33.271Z,98552.44
2023-01-18T00:51:00.092Z,98548.91
2023-01-18T00:53:26.901Z,98562.13
2023-01-18T00:55:53.324Z,98564.31
2023-01-18T00:58:19.701Z,98570.88
2023-01-18T01:00:48.007Z,98530.41
2023-01-18T01:03:15.164Z,98559.47
2023-01-18T01:06:00.209Z,98578.13
2023-01-18T01:08:26.767Z,98566.69
2023-01-18T01:11:02.930Z,98587.03
2023-01-18T01:13:48.133Z,98569.56
2023-01-18T01:16:34.050Z,98561.06
2023-01-18T01:19:19.225Z,98605.41
2023-01-18T01:22:04.068Z,98604.75
2023-01-18T01:24:48.914Z,98594.06
2023-01-18T01:27:15.392Z,98595.66
2023-01-18T01:29:41.853Z,98611.81
2023-01-18T01:32:08.483Z,98593.50
2023-01-18T01:34:35.922Z,98623.69
2023-01-18T01:37:03.434Z,98618.66
2023-01-18T01:39:30.548Z,98630.53
2023-01-18T01:41:57.556Z,98613.47
2023-01-18T01:44:24.523Z,98643.59
2023-01-18T01:46:53.679Z,98627.97
2023-01-18T01:49:32.864Z,98622.75
2023-01-18T01:52:04.254Z,98645.06
2023-01-18T01:54:37.435Z,98586.00
2023-01-18T01:57:10.973Z,98609.03
2023-01-18T01:59:41.988Z,98642.69
2023-01-18T02:02:09.701Z,98648.50
2023-01-18T02:04:36.779Z,98636.63
2023-01-18T02:07:03.306Z,98651.41
2023-01-18T02:09:29.661Z,98662.06
2023-01-18T02:11:56.611Z,98645.69
2023-01-18T02:14:26.573Z,98650.63
2023-01-18T02:17:11.687Z,98666.69
2023-01-18T02:20:19.944Z,98671.47
2023-01-18T02:23:24.037Z,98676.25
2023-01-18T02:26:28.343Z,98677.16
2023-01-18T02:29:05.307Z,98681.06
2023-01-18T02:31:40.157Z,98659.91
2023-01-18T02:34:18.034Z,98647.06
2023-01-18T02:37:03.778Z,98631.84
2023-01-18T02:39:42.655Z,98673.28
2023-01-18T02:42:39.936Z,98664.66
2023-01-18T02:45:38.495Z,98648.63
2023-01-18T02:48:07.657Z,98635.72
2023-01-18T02:50:34.586Z,98641.72
2023-01-18T02:53:00.994Z,98620.13
2023-01-18T02:55:36.421Z,98633.25
2023-01-18T02:58:09.778Z,98639.63
2023-01-18T03:00:41.095Z,98647.16
2023-01-18T03:03:11.241Z,98635.69
2023-01-18T03:05:39.806Z,98652.19
2023-01-18T03:08:16.602Z,98632.31
2023-01-18T03:10:57.699Z,98662.06
2023-01-18T03:14:05.422Z,98668.75
2023-01-18T03:16:58.532Z,98676.44
2023-01-18T03:19:57.140Z,98679.66
2023-01-18T03:22:46.478Z,98669.34
2023-01-18T03:25:19.023Z,98651.16
2023-01-18T03:28:06.692Z,98663.97
2023-01-18T03:30:53.251Z,98659.13
2023-01-18T03:33:42.891Z,98670.91
2023-01-18T03:36:16.517Z,98642.66
2023-01-18T03:38:46.367Z,98635.56
2023-01-18T03:41:14.207Z,98642.69
2023-01-18T03:43:42.180Z,98665.34
2023-01-18T03:46:08.917Z,98652.34
2023-01-18T03:48:36.618Z,98662.34
2023-01-18T03:51:26.341Z,98678.47
2023-01-18T03:54:15.348Z,98680.81
2023-01-18T03:56:53.887Z,98674.97
2023-01-18T03:59:21.609Z,98663.72
2023-01-18T04:01:49.046Z,98683.41
2023-01-18T04:04:15.499Z,98663.34
2023-01-18T04:06:42.464Z,98674.31
2023-01-18T04:09:08.914Z,98655.53
2023-01-18T04:11:35.397Z,98674.16
2023-01-18T04:14:01.796Z,98683.34
2023-01-18T04:16:28.253Z,98680.38
2023-01-18T04:18:54.596Z,98689.63
2023-01-18T04:21:21.075Z,98672.97
2023-01-18T04:23:47.395Z,98692.00
2023-01-18T04:26:16.656Z,98661.91
2023-01-18T04:28:43.243Z,98672.41
2023-01-18T04:31:09.903Z,98682.28
2023-01-18T04:33:36.423Z,98653.59
2023-01-18T04:36:02.892Z,98679.59
2023-01-18T04:38:29.378Z,98645.72
2023-01-18T04:41:02.680Z,98679.06
2023-01-18T04:43:29.639Z,98653.31
2023-01-18T04:45:56.811Z,98671.34
2023-01-18T04:48:24.377Z,98640.38
2023-01-18T04:50:51.521Z,98676.16
2023-01-18T04:53:18.325Z,98637.75
2023-01-18T04:55:45.626Z,98670.41
2023-01-18T04:58:12.240Z,98693.84
2023-01-18T05:00:39.938Z,98703.31
2023-01-18T05:03:08.064Z,98685.03
2023-01-18T05:05:34.605Z,98679.56
2023-01-18T05:08:00.935Z,98704.75
2023-01-18T05:10:27.821Z,98699.00
2023-01-18T05:12:54.272Z,98669.78
2023-01-18T05:15:20.773Z,98695.47
2023-01-18T05:17:47.204Z,98706.00
2023-01-18T05:20:13.850Z,98699.97
2023-01-18T05:22:40.327Z,98708.63
2023-01-18T05:25:06.834Z,98720.72
2023-01-18T05:27:33.851Z,98669.31
2023-01-18T05:30:01.803Z,98698.59
2023-01-18T05:32:28.304Z,98725.50
2023-01-18T05:34:54.698Z,98732.06
2023-01-18T05:37:21.129Z,98716.06
2023-01-18T05:39:47.541Z,98722.13
2023-01-18T05:42:13.919Z,98739.50
2023-01-18T05:44:40.921Z,98745.88
2023-01-18T05:47:07.380Z,98729.75
2023-01-18T05:49:33.811Z,98729.53
2023-01-18T05:52:00.319Z,98733.94
2023-01-18T05:54:26.666Z,98746.53
2023-01-18T05:56:53.130Z,98703.59
2023-01-18T05:59:19.474Z,98757.50
2023-01-18T06:01:45.979Z,98742.13
2023-01-18T06:04:12.413Z,98752.78
2023-01-18T06:06:38.837Z,98750.31
2023-01-18T06:09:05.278Z,98727.53
2023-01-18T06:11:31.630Z,98752.84
2023-01-18T06:13:58.046Z,98738.88
2023-01-18T06:16:27.070Z,98732.25
2023-01-18T06:18:53.655Z,98728.75
2023-01-18T06:21:20.022Z,98770.38
2023-01-18T06:23:46.437Z,98760.06
2023-01-18T06:26:12.940Z,98739.75
2023-01-18T06:28:39.296Z,98775.78
2023-01-18T06:31:08.218Z,98771.03
2023-01-18T06:33:34.950Z,98762.78
2023-01-18T06:36:01.601Z,98765.44
2023-01-18T06:38:29.782Z,98764.28
2023-01-18T06:40:56.323Z,98766.59
2023-01-18T06:43:23.134Z,98799.19
2023-01-18T06:45:56.339Z,98802.66
2023-01-18T06:48:26.604Z,98765.88
2023-01-18T06:50:56.011Z,98796.00
2023-01-18T06:53:22.658Z,98777.56
2023-01-18T06:55:57.093Z,98771.59
2023-01-18T06:58:25.889Z,98795.53
2023-01-18T07:01:00.150Z,98816.03
2023-01-18T07:03:28.828Z,98803.19
2023-01-18T07:05:56.657Z,98805.44
2023-01-18T07:08:23.950Z,98812.00
2023-01-18T07:10:52.839Z,98809.94
2023-01-18T07:13:20.070Z,98826.69
2023-01-18T07:15:54.278Z,98792.06
2023-01-18T07:18:20.750Z,98803.84
2023-01-18T07:20:47.561Z,98820.72
2023-01-18T07:23:17.050Z,98809.78
2023-01-18T07:25:43.497Z,98804.75
2023-01-18T07:28:10.040Z,98812.97
2023-01-18T07:30:39.485Z,98767.88
2023-01-18T07:33:08.000Z,98799.53
2023-01-18T07:35:37.139Z,98784.22
2023-01-18T07:38:04.171Z,98792.41
2023-01-18T07:40:31.088Z,98795.66
2023-01-18T07:43:04.827Z,98837.78
2023-01-18T07:45:34.167Z,98781.44
2023-01-18T07:48:02.864Z,98833.50
2023-01-18T07:50:33.954Z,98786.72
2023-01-18T07:53:06.728Z,98800.69
2023-01-18T07:55:33.941Z,98780.31
2023-01-18T07:58:03.218Z,98827.53
2023-01-18T08:00:35.034Z,98823.28
2023-01-18T08:03:12.719Z,98794.38
2023-01-18T08:05:39.757Z,98801.06
2023-01-18T08:08:11.435Z,98770.63
2023-01-18T08:10:38.663Z,98819.22
2023-01-18T08:13:09.146Z,98784.13
2023-01-18T08:15:39.339Z,98804.44
2023-01-18T08:18:07.478Z,98809.28
2023-01-18T08:20:34.373Z,98809.53
2023-01-18T08:23:01.762Z,98800.91
2023-01-18T08:25:30.256Z,98807.78
2023-01-18T08:31:22.306Z,98782.75
2023-01-18T08:34:00.863Z,98785.13
2023-01-18T08:43:37.258Z,98814.00
2023-01-18T08:46:22.323Z,98810.81
2023-01-18T08:49:49.670Z,98826.75
2023-01-18T08:52:16.463Z,98822.34
2023-01-18T08:54:43.248Z,98811.53
2023-01-18T08:57:11.027Z,98845.44
2023-01-18T08:59:37.577Z,98822.91
2023-01-18T09:02:04.093Z,98858.19
2023-01-18T09:04:30.733Z,98846.16
2023-01-18T09:06:57.211Z,98872.25
2023-01-18T09:09:23.902Z,98855.97
2023-01-18T09:11:51.873Z,98838.81
2023-01-18T09:14:19.068Z,98872.44
2023-01-18T09:16:45.631Z,98858.56
2023-01-18T09:19:12.788Z,98878.94
2023-01-18T09:21:41.106Z,98814.28
2023-01-18T09:24:08.030Z,98885.59
2023-01-18T09:26:34.566Z,98874.78
2023-01-18T09:29:10.933Z,98879.91
2023-01-18T09:31:40.702Z,98858.56
2023-01-18T09:34:18.967Z,98834.22
2023-01-18T09:36:49.286Z,98878.03
2023-01-18T09:39:16.038Z,98864.03
2023-01-18T09:41:47.098Z,98871.41
2023-01-18T09:44:28.862Z,98891.97
2023-01-18T09:47:03.179Z,98848.28
2023-01-18T09:49:52.157Z,98872.66
2023-01-18T09:52:34.261Z,98875.94
2023-01-18T09:55:41.887Z,98877.00
2023-01-18T09:58:19.260Z,98897.59
2023-01-18T10:01:07.610Z,98846.41
2023-01-18T10:06:55.376Z,98905.31
2023-01-18T10:09:30.080Z,98887.75
2023-01-18T10:11:56.512Z,98894.88
2023-01-18T10:14:48.949Z,98891.13
2023-01-18T10:17:21.429Z,98877.72
2023-01-18T10:19:48.336Z,98887.44
2023-01-18T10:22:31.994Z,98876.66
2023-01-18T10:25:10.207Z,98897.75
2023-01-18T10:28:28.381Z,98882.19
2023-01-18T10:34:52.083Z,98899.59
2023-01-18T10:37:38.947Z,98887.66
2023-01-18T10:40:09.531Z,98908.81
2023-01-18T10:42:48.158Z,98864.13
2023-01-18T10:45:22.742Z,98910.38
2023-01-18T10:47:51.519Z,98900.66
2023-01-18T10:50:42.372Z,98906.13
2023-01-18T10:53:23.867Z,98917.69
2023-01-18T10:56:04.989Z,98904.00
2023-01-18T10:59:11.277Z,98901.91
2023-01-18T11:08:40.972Z,98870.81
2023-01-18T11:11:56.189Z,98873.31
2023-01-18T11:14:39.797Z,98871.63
2023-01-18T11:17:11.765Z,98869.66
2023-01-18T11:19:41.922Z,98900.16
2023-01-18T11:22:13.427Z,98923.28
2023-01-18T11:24:40.481Z,98876.75
2023-01-18T11:27:26.048Z,98888.81
2023-01-18T11:29:56.155Z,98898.34
2023-01-18T11:32:29.276Z,98886.72
2023-01-18T11:35:02.836Z,98902.06
2023-01-18T11:37:36.656Z,98908.28
2023-01-18T11:40:41.818Z,98926.34
2023-01-18T11:43:20.520Z,98885.56
2023-01-18T11:46:28.134Z,98896.91
2023-01-18T11:49:23.936Z,98901.03
2023-01-18T11:52:42.223Z,98933.88
2023-01-18T11:55:23.985Z,98924.38
2023-01-18T11:57:55.368Z,98927.97
2023-01-18T12:00:28.079Z,98912.75
2023-01-18T12:03:05.686Z,98936.63
2023-01-18T12:05:45.990Z,98924.88
2023-01-18T12:08:27.166Z,98908.09
2023-01-18T12:11:05.994Z,98942.25
2023-01-18T12:13:55.225Z,98947.25
2023-01-18T12:16:30.900Z,98947.44
2023-01-18T12:19:30.085Z,98915.81
2023-01-18T12:22:34.602Z,98954.59
2023-01-18T12:25:18.591Z,98939.88
2023-01-18T12:28:22.459Z,98945.84
2023-01-18T12:31:23.513Z,98919.53
2023-01-18T12:34:12.776Z,98926.34
2023-01-18T12:37:02.841Z,98944.22
2023-01-18T12:40:14.456Z,98945.16
2023-01-18T12:42:55.563Z,98933.44
2023-01-18T12:45:44.127Z,98977.25
2023-01-18T12:48:13.790Z,98972.44
2023-01-18T12:50:43.597Z,98967.59
2023-01-18T12:53:37.786Z,98968.75
2023-01-18T12:56:16.899Z,98966.13
2023-01-18T12:58:44.241Z,98985.72
2023-01-18T13:01:16.562Z,98966.78
2023-01-18T13:03:47.281Z,98986.19
2023-01-18T13:06:18.603Z,99007.75
2023-01-18T13:08:52.852Z,98996.59
2023-01-18T13:11:30.141Z,98991.75
2023-01-18T13:14:11.557Z,99001.00
2023-01-18T13:16:47.831Z,98970.56
2023-01-18T13:19:24.934Z,98976.72
2023-01-18T13:21:56.698Z,99033.78
2023-01-18T13:24:42.739Z,99003.00
2023-01-18T13:27:12.551Z,99030.66
2023-01-18T13:29:40.707Z,99013.91
2023-01-18T13:32:38.011Z,99038.50
2023-01-18T13:35:20.446Z,99024.81
2023-01-18T13:38:01.420Z,99040.19
2023-01-18T13:40:43.026Z,99005.91
2023-01-18T13:43:36.100Z,98997.97
2023-01-18T13:46:09.010Z,99046.41
2023-01-18T13:48:45.352Z,99051.06
2023-01-18T13:51:43.039Z,99053.28
2023-01-18T13:54:18.673Z,99045.75
2023-01-18T13:57:16.828Z,99037.94
2023-01-18T13:59:52.314Z,99056.94
2023-01-18T14:02:25.581Z,99050.56
2023-01-18T14:05:28.244Z,99075.41
2023-01-18T14:07:57.965Z,99043.81
2023-01-18T14:10:27.937Z,99081.66
2023-01-18T14:12:57.170Z,99040.53
2023-01-18T14:15:49.196Z,99053.72
2023-01-18T14:18:28.486Z,99080.94
2023-01-18T14:21:15.269Z,99087.22
2023-01-18T14:24:06.740Z,99111.19
2023-01-18T14:26:37.788Z,99078.25
2023-01-18T14:29:14.387Z,99096.31
2023-01-18T14:31:52.247Z,99100.00
2023-01-18T14:34:43.804Z,99064.06
2023-01-18T14:37:28.936Z,99137.75
2023-01-18T14:40:17.885Z,99126.94
2023-01-18T14:42:49.529Z,99136.75
2023-01-18T14:45:24.331Z,99096.25
2023-01-18T14:47:53.871Z,99131.00
2023-01-18T14:50:24.911Z,99141.94
2023-01-18T14:52:58.065Z,99119.09
2023-01-18T14:55:34.571Z,99150.28
2023-01-18T14:58:11.829Z,99125.88
2023-01-18T15:04:39.073Z,99149.00
2023-01-18T15:07:13.977Z,99147.91
2023-01-18T15:09:45.859Z,99144.44
2023-01-18T15:12:16.948Z,99193.69
2023-01-18T15:14:47.400Z,99164.66
2023-01-18T15:17:26.594Z,99200.81
2023-01-18T15:19:58.049Z,99189.34
2023-01-18T15:22:31.135Z,99179.69
2023-01-18T15:24:59.514Z,99161.16
2023-01-18T15:27:31.710Z,99182.25
2023-01-18T15:30:00.410Z,99215.38
2023-01-18T15:32:29.948Z,99202.91
2023-01-18T15:34:58.235Z,99210.44
2023-01-18T15:37:27.683Z,99182.28
2023-01-18T15:39:57.775Z,99234.06
2023-01-18T15:42:46.959Z,99229.66
2023-01-18T15:45:40.441Z,99221.34
2023-01-18T15:48:22.674Z,99202.94
2023-01-18T15:50:58.319Z,99226.81
2023-01-18T15:53:35.689Z,99248.72
2023-01-18T15:56:15.451Z,99239.75
2023-01-18T15:58:47.788Z,99249.94
2023-01-18T16:01:16.001Z,99264.22
2023-01-18T16:03:48.462Z,99278.00
2023-01-18T16:06:18.896Z,99262.88
2023-01-18T16:09:11.834Z,99281.28
2023-01-18T16:11:39.742Z,99287.66
2023-01-18T16:14:22.389Z,99252.28
2023-01-18T16:16:49.487Z,99246.59
2023-01-18T16:19:16.006Z,99280.41
2023-01-18T16:22:04.934Z,99311.31
2023-01-18T16:24:45.461Z,99291.06
2023-01-18T16:27:19.037Z,99281.09
2023-01-18T16:29:52.343Z,99314.81
2023-01-18T16:32:21.829Z,99322.28
2023-01-18T16:34:48.780Z,99288.50
2023-01-18T16:37:15.328Z,99305.03
2023-01-18T16:39:44.512Z,99338.13
2023-01-18T16:42:12.100Z,99330.63
2023-01-18T16:44:41.756Z,99327.91
2023-01-18T16:47:11.819Z,99301.44
2023-01-18T16:49:41.679Z,99324.81
2023-01-18T16:52:13.131Z,99301.66
2023-01-18T16:54:41.990Z,99333.41
2023-01-18T16:57:17.907Z,99320.88
2023-01-18T16:59:44.543Z,99326.44
2023-01-18T17:02:11.468Z,99351.34
2023-01-18T17:04:38.108Z,99319.94
2023-01-18T17:07:06.721Z,99338.84
2023-01-18T17:09:47.820Z,99332.59
2023-01-18T17:12:15.695Z,99363.69
2023-01-18T17:14:42.295Z,99366.25
2023-01-18T17:17:09.784Z,99372.16
2023-01-18T17:19:37.775Z,99340.25
2023-01-18T17:22:04.435Z,99362.91
2023-01-18T17:24:30.904Z,99381.66
2023-01-18T17:28:05.155Z,99362.31
2023-01-18T17:30:32.941Z,99367.41
2023-01-18T17:32:59.922Z,99375.66
2023-01-18T17:35:28.534Z,99381.56
2023-01-18T17:38:11.394Z,99378.69
2023-01-18T17:40:44.009Z,99386.38
2023-01-18T17:43:28.565Z,99410.25
2023-01-18T17:46:02.273Z,99392.88
2023-01-18T17:48:29.314Z,99399.13
2023-01-18T17:50:55.905Z,99408.56
2023-01-18T17:53:22.275Z,99426.31
2023-01-18T17:55:48.749Z,99400.19
2023-01-18T17:58:15.238Z,99434.69
2023-01-18T18:00:42.016Z,99414.53
2023-01-18T18:03:09.305Z,99437.41
2023-01-18T18:05:35.983Z,99411.91
2023-01-18T18:08:02.523Z,99433.53
2023-01-18T18:10:28.927Z,99448.88
2023-01-18T18:12:57.174Z,99419.16
2023-01-18T18:15:23.885Z,99415.44
2023-01-18T18:17:51.031Z,99429.50
2023-01-18T18:20:17.854Z,99444.94
2023-01-18T18:22:44.607Z,99407.94
2023-01-18T18:25:11.414Z,99419.34
2023-01-18T18:27:45.344Z,99438.97
2023-01-18T18:30:12.991Z,99436.75
2023-01-18T18:32:39.896Z,99427.81
2023-01-18T18:35:19.460Z,99416.81
2023-01-18T18:37:51.660Z,99428.22
2023-01-18T18:40:19.577Z,99423.81
2023-01-18T18:42:56.486Z,99454.75
2023-01-18T18:45:28.391Z,99429.38
2023-01-18T18:47:55.196Z,99442.78
2023-01-18T18:50:22.003Z,99433.81
2023-01-18T18:52:48.825Z,99433.25
2023-01-18T18:55:15.637Z,99446.19
2023-01-18T18:57:42.201Z,99476.66
2023-01-18T19:00:11.978Z,99488.69
2023-01-18T19:02:47.619Z,99460.97
2023-01-18T19:05:15.605Z,99453.47
2023-01-18T19:07:48.102Z,99507.94
2023-01-18T19:10:15.470Z,99455.00
2023-01-18T19:12:44.940Z,99466.22
2023-01-18T19:15:16.910Z,99524.00
2023-01-18T19:17:43.672Z,99489.06
2023-01-18T19:20:13.970Z,99486.34
2023-01-18T19:22:40.733Z,99489.91
2023-01-18T19:25:11.058Z,99491.75
2023-01-18T19:27:37.981Z,99479.53
2023-01-18T19:30:15.476Z,99499.47
2023-01-18T19:32:55.755Z,99498.38
2023-01-18T19:35:30.599Z,99530.44
2023-01-18T19:38:01.120Z,99501.69
2023-01-18T19:40:30.593Z,99485.63
2023-01-18T19:43:00.910Z,99481.91
2023-01-18T19:46:15.727Z,99534.69
2023-01-18T19:49:06.729Z,99494.56
2023-01-18T19:51:57.940Z,99489.47
2023-01-18T19:54:35.444Z,99502.59
2023-01-18T19:57:18.256Z,99508.38
2023-01-18T20:00:00.613Z,99498.63
2023-01-18T20:05:34.393Z,99492.88
2023-01-18T20:15:11.478Z,99518.84
2023-01-18T20:21:39.319Z,99572.66
2023-01-18T20:24:43.462Z,99552.78
2023-01-18T20:27:53.623Z,99555.69
2023-01-18T20:30:46.568Z,99513.25
2023-01-18T20:37:00.898Z,99539.75
2023-01-18T20:40:04.881Z,99526.25
2023-01-18T20:42:37.641Z,99548.16
2023-01-18T20:45:07.536Z,99540.63
2023-01-18T20:47:34.775Z,99522.84
2023-01-18T20:50:16.540Z,99548.47
2023-01-18T20:52:55.933Z,99535.94
2023-01-18T21:02:26.475Z,99588.44
2023-01-18T21:05:04.223Z,99553.16
2023-01-18T21:07:59.554Z,99556.47
2023-01-18T21:10:38.855Z,99561.34
2023-01-18T21:13:17.067Z,99583.31
2023-01-18T21:16:28.884Z,99584.78
2023-01-18T21:19:13.846Z,99563.28
2023-01-18T21:22:10.256Z,99597.59
2023-01-18T21:24:44.822Z,99566.44
2023-01-18T21:27:18.681Z,99562.19
2023-01-18T21:29:45.971Z,99593.47
2023-01-18T21:32:25.800Z,99581.91
2023-01-18T21:34:55.806Z,99577.00
2023-01-18T21:37:30.892Z,99613.84
2023-01-18T21:40:06.310Z,99610.47
2023-01-18T21:43:02.202Z,99613.25
2023-01-18T21:45:47.399Z,99597.53
2023-01-18T21:48:14.257Z,99590.16
2023-01-18T21:54:01.396Z,99609.50
2023-01-18T21:56:31.279Z,99638.75
2023-01-18T21:59:00.432Z,99634.22
2023-01-18T22:01:38.655Z,99611.34
2023-01-18T22:04:27.359Z,99651.88
2023-01-18T22:06:54.218Z,99640.63
2023-01-18T22:09:21.264Z,99640.94
2023-01-18T22:11:48.266Z,99661.78
2023-01-18T22:14:15.852Z,99638.31
2023-01-18T22:16:42.501Z,99637.09
2023-01-18T22:19:20.717Z,99634.19
2023-01-18T22:21:49.982Z,99624.75
2023-01-18T22:24:17.654Z,99661.03
2023-01-18T22:26:45.440Z,99663.84
2023-01-18T22:29:12.593Z,99672.53
2023-01-18T22:31:39.567Z,99664.84
2023-01-18T22:34:07.510Z,99636.78
2023-01-18T22:36:34.361Z,99630.53
2023-01-18T22:39:01.056Z,99650.13
2023-01-18T22:41:29.042Z,99644.38
2023-01-18T22:43:56.441Z,99683.47
2023-01-18T22:46:23.964Z,99682.81
2023-01-18T22:48:51.008Z,99687.00
2023-01-18T22:51:20.057Z,99685.31
2023-01-18T22:53:46.542Z,99673.13
2023-01-18T22:56:14.073Z,99701.31
2023-01-18T22:58:40.521Z,99692.00
2023-01-18T23:01:25.189Z,99702.00
2023-01-18T23:03:53.443Z,99675.13
2023-01-18T23:06:20.786Z,99680.00
2023-01-18T23:08:47.958Z,99701.91
2023-01-18T23:11:17.918Z,99676.38
2023-01-18T23:14:07.055Z,99693.28
2023-01-18T23:16:52.135Z,99687.16
2023-01-18T23:19:19.181Z,99680.44
2023-01-18T23:21:45.990Z,99680.13
2023-01-18T23:24:12.686Z,99693.94
2023-01-18T23:26:39.378Z,99696.13
2023-01-18T23:29:05.859Z,99706.72
2023-01-18T23:31:32.229Z,99699.03
2023-01-18T23:33:58.662Z,99702.47
2023-01-18T23:36:25.148Z,99702.97
2023-01-18T23:39:10.288Z,99709.88
2023-01-18T23:41:55.556Z,99692.22
2023-01-18T23:44:40.663Z,99701.81
2023-01-18T23:47:25.564Z,99704.31
2023-01-18T23:50:10.529Z,99704.81
2023-01-18T23:52:55.327Z,99702.38
2023-01-18T23:55:21.832Z,99719.41
2023-01-18T23:57:48.251Z,99724.25
